createdAt,value
2022-12-03T00:02:23.483Z,22.70
2022-12-03T00:04:49.907Z,25.40
2022-12-03T00:07:16.489Z,25.25
2022-12-03T00:09:42.896Z,30.33
2022-12-03T00:12:09.260Z,32.35
2022-12-03T00:14:37.829Z,33.13
2022-12-03T00:17:07.766Z,30.02
2022-12-03T00:19:34.166Z,26.77
2022-12-03T00:22:00.425Z,29.85
2022-12-03T00:24:26.766Z,25.35
2022-12-03T00:26:53.118Z,26.33
2022-12-03T00:29:19.507Z,29.15
2022-12-03T00:31:45.840Z,25.85
2022-12-03T00:34:12.648Z,27.48
2022-12-03T00:36:38.926Z,25.02
2022-12-03T00:39:05.646Z,27.05
2022-12-03T00:41:31.931Z,26.17
2022-12-03T00:43:58.278Z,26.73
2022-12-03T00:46:24.963Z,23.52
2022-12-03T00:48:51.267Z,24.20
2022-12-03T00:51:17.666Z,28.25
2022-12-03T00:53:43.984Z,29.02
2022-12-03T00:56:10.300Z,29.58
2022-12-03T00:58:36.595Z,25.92
2022-12-03T01:01:02.922Z,30.30
2022-12-03T01:03:29.525Z,25.10
2022-12-03T01:05:55.843Z,29.67
2022-12-03T01:08:22.198Z,26.88
2022-12-03T01:10:48.460Z,29.00
2022-12-03T01:13:14.812Z,26.70
2022-12-03T01:15:41.655Z,24.88
2022-12-03T01:18:07.989Z,25.27
2022-12-03T01:20:36.265Z,28.58
2022-12-03T01:23:02.595Z,28.08
2022-12-03T01:25:28.898Z,30.45
2022-12-03T01:27:55.213Z,30.38
2022-12-03T01:30:21.523Z,29.48
2022-12-03T01:32:47.833Z,31.95
2022-12-03T01:35:14.087Z,27.55
2022-12-03T01:37:40.738Z,26.38
2022-12-03T01:40:07.773Z,26.95
2022-12-03T01:42:35.349Z,28.20
2022-12-03T01:45:03.186Z,33.67
2022-12-03T01:47:33.654Z,27.45
2022-12-03T01:50:05.372Z,26.95
2022-12-03T01:52:33.295Z,30.67
2022-12-03T01:55:01.683Z,28.92
2022-12-03T01:57:29.735Z,31.13
2022-12-03T01:59:57.405Z,32.05
2022-12-03T02:02:27.312Z,24.27
2022-12-03T02:04:53.966Z,27.77
2022-12-03T02:07:25.524Z,27.38
2022-12-03T02:09:52.500Z,28.63
2022-12-03T02:12:21.113Z,30.88
2022-12-03T02:14:47.459Z,30.67
2022-12-03T02:17:13.828Z,25.33
2022-12-03T02:19:40.356Z,27.35
2022-12-03T02:22:18.843Z,27.30
2022-12-03T02:24:45.100Z,27.77
2022-12-03T02:27:11.708Z,28.75
2022-12-03T02:29:38.045Z,25.13
2022-12-03T02:32:04.502Z,29.30
2022-12-03T02:34:33.798Z,26.63
2022-12-03T02:37:00.365Z,26.77
2022-12-03T02:39:26.853Z,29.23
2022-12-03T02:42:12.354Z,27.65
2022-12-03T02:44:38.989Z,29.75
2022-12-03T02:47:05.321Z,26.80
2022-12-03T02:49:31.597Z,25.48
2022-12-03T02:51:57.932Z,25.27
2022-12-03T02:54:24.400Z,26.23
2022-12-03T02:56:50.700Z,31.42
2022-12-03T02:59:17.021Z,27.17
2022-12-03T03:01:44.182Z,25.88
2022-12-03T03:04:10.742Z,26.08
2022-12-03T03:06:37.003Z,24.60
2022-12-03T03:09:03.536Z,30.23
2022-12-03T03:11:29.951Z,25.88
2022-12-03T03:13:56.245Z,29.63
2022-12-03T03:16:22.595Z,26.25
2022-12-03T03:18:49.013Z,31.83
2022-12-03T03:21:15.321Z,27.45
2022-12-03T03:23:41.863Z,27.10
2022-12-03T03:26:09.657Z,28.88
2022-12-03T03:28:38.053Z,28.48
2022-12-03T03:31:05.285Z,26.42
2022-12-03T03:33:32.324Z,26.95
2022-12-03T03:36:00.358Z,26.92
2022-12-03T03:38:27.162Z,27.50
2022-12-03T03:40:53.423Z,26.48
2022-12-03T03:43:22.898Z,27.15
2022-12-03T03:45:50.176Z,31.08
2022-12-03T03:48:16.793Z,28.13
2022-12-03T03:50:44.126Z,31.27
2022-12-03T03:53:10.918Z,28.77
2022-12-03T03:55:37.757Z,29.42
2022-12-03T03:58:04.223Z,23.58
2022-12-03T04:00:31.188Z,31.25
2022-12-03T04:02:57.417Z,28.65
2022-12-03T04:05:24.209Z,32.42
2022-12-03T04:07:50.669Z,33.58
2022-12-03T04:10:35.461Z,24.63
2022-12-03T04:13:02.249Z,31.17
2022-12-03T04:15:28.611Z,32.20
2022-12-03T04:18:14.005Z,26.67
2022-12-03T04:20:40.524Z,29.33
2022-12-03T04:23:08.216Z,29.75
2022-12-03T04:25:53.168Z,31.02
2022-12-03T04:28:37.910Z,30.08
2022-12-03T04:31:23.308Z,28.63
2022-12-03T04:34:08.077Z,28.80
2022-12-03T04:36:34.333Z,27.15
2022-12-03T04:39:00.732Z,29.48
2022-12-03T04:41:27.093Z,33.25
2022-12-03T04:44:12.323Z,28.63
2022-12-03T04:46:38.609Z,28.67
2022-12-03T04:49:04.940Z,28.75
2022-12-03T04:51:31.241Z,28.80
2022-12-03T04:53:57.578Z,29.73
2022-12-03T04:56:23.931Z,33.13
2022-12-03T04:58:50.178Z,27.17
2022-12-03T05:01:16.565Z,29.63
2022-12-03T05:03:42.955Z,30.00
2022-12-03T05:06:09.273Z,33.95
2022-12-03T05:08:35.512Z,29.75
2022-12-03T05:11:01.859Z,28.08
2022-12-03T05:13:28.161Z,30.20
2022-12-03T05:15:54.434Z,32.67
2022-12-03T05:18:20.688Z,36.30
2022-12-03T05:20:52.994Z,30.65
2022-12-03T05:23:20.082Z,33.40
2022-12-03T05:25:46.548Z,34.03
2022-12-03T05:28:12.841Z,34.72
2022-12-03T05:30:39.199Z,36.03
2022-12-03T05:33:05.623Z,33.17
2022-12-03T05:35:31.951Z,34.72
2022-12-03T05:37:58.275Z,32.58
2022-12-03T05:40:24.771Z,36.03
2022-12-03T05:42:53.834Z,34.72
2022-12-03T05:45:20.302Z,32.92
2022-12-03T05:47:46.679Z,37.08
2022-12-03T05:50:13.098Z,37.30
2022-12-03T05:52:39.356Z,35.05
2022-12-03T05:55:06.410Z,41.55
2022-12-03T05:57:32.740Z,36.78
2022-12-03T05:59:59.075Z,38.72
2022-12-03T06:02:25.454Z,43.33
2022-12-03T06:04:52.323Z,40.25
2022-12-03T06:07:18.886Z,38.78
2022-12-03T06:09:45.196Z,41.72
2022-12-03T06:12:11.892Z,35.15
2022-12-03T06:14:38.153Z,31.95
2022-12-03T06:17:04.990Z,36.03
2022-12-03T06:19:31.393Z,37.67
2022-12-03T06:21:57.667Z,38.63
2022-12-03T06:24:23.991Z,38.05
2022-12-03T06:26:50.255Z,34.67
2022-12-03T06:29:16.544Z,33.58
2022-12-03T06:31:42.941Z,37.70
2022-12-03T06:34:09.334Z,31.13
2022-12-03T06:36:35.671Z,32.78
2022-12-03T06:39:01.953Z,28.98
2022-12-03T06:41:28.194Z,31.88
2022-12-03T06:43:54.420Z,30.27
2022-12-03T06:46:20.747Z,30.33
2022-12-03T06:48:47.129Z,33.30
2022-12-03T06:51:13.413Z,29.90
2022-12-03T06:53:39.697Z,27.38
2022-12-03T06:56:06.169Z,32.17
2022-12-03T06:58:32.425Z,30.85
2022-12-03T07:00:58.681Z,29.38
2022-12-03T07:03:25.044Z,30.50
2022-12-03T07:05:51.426Z,33.83
2022-12-03T07:08:17.769Z,31.98
2022-12-03T07:10:44.110Z,31.35
2022-12-03T07:13:10.530Z,29.88
2022-12-03T07:15:37.228Z,31.23
2022-12-03T07:18:03.493Z,30.35
2022-12-03T07:20:29.771Z,29.42
2022-12-03T07:22:56.027Z,29.13
2022-12-03T07:25:23.708Z,31.92
2022-12-03T07:27:50.266Z,31.80
2022-12-03T07:30:16.744Z,27.02
2022-12-03T07:32:43.046Z,26.13
2022-12-03T07:35:09.455Z,23.98
2022-12-03T07:37:35.754Z,25.63
2022-12-03T07:40:02.421Z,26.38
2022-12-03T07:42:28.721Z,26.23
2022-12-03T07:44:55.279Z,31.63
2022-12-03T07:47:21.833Z,26.80
2022-12-03T07:49:48.165Z,30.13
2022-12-03T07:52:14.641Z,29.05
2022-12-03T07:54:40.904Z,31.95
2022-12-03T07:57:07.256Z,28.33
2022-12-03T07:59:34.328Z,31.58
2022-12-03T08:02:00.704Z,32.92
2022-12-03T08:04:27.017Z,27.73
2022-12-03T08:06:53.371Z,32.65
2022-12-03T08:09:19.611Z,31.08
2022-12-03T08:11:47.663Z,29.00
2022-12-03T08:14:16.283Z,31.77
2022-12-03T08:16:43.691Z,30.05
2022-12-03T08:19:11.298Z,30.88
2022-12-03T08:21:38.215Z,27.20
2022-12-03T08:24:15.140Z,29.83
2022-12-03T08:26:42.121Z,31.00
2022-12-03T08:29:09.128Z,33.88
2022-12-03T08:31:35.499Z,31.35
2022-12-03T08:34:13.787Z,34.53
2022-12-03T08:36:40.144Z,30.65
2022-12-03T08:39:29.834Z,30.40
2022-12-03T08:42:27.811Z,40.33
2022-12-03T08:44:55.463Z,35.58
2022-12-03T08:47:23.387Z,31.50
2022-12-03T08:50:03.454Z,39.05
2022-12-03T08:52:34.067Z,36.35
2022-12-03T08:55:02.799Z,38.28
2022-12-03T08:57:30.855Z,38.15
2022-12-03T09:00:01.157Z,34.22
2022-12-03T09:02:32.473Z,36.33
2022-12-03T09:04:59.218Z,36.50
2022-12-03T09:07:25.530Z,37.60
2022-12-03T09:09:51.888Z,36.80
2022-12-03T09:12:18.117Z,36.35
2022-12-03T09:14:44.419Z,40.53
2022-12-03T09:17:11.042Z,32.33
2022-12-03T09:19:42.719Z,41.65
2022-12-03T09:22:12.142Z,36.83
2022-12-03T09:24:38.396Z,37.10
2022-12-03T09:27:04.701Z,37.40
2022-12-03T09:29:30.996Z,35.88
2022-12-03T09:31:57.333Z,35.45
2022-12-03T09:34:23.728Z,35.45
2022-12-03T09:36:50.026Z,33.15
2022-12-03T09:39:16.332Z,36.30
2022-12-03T09:41:43.329Z,38.78
2022-12-03T09:44:15.825Z,39.25
2022-12-03T09:46:45.979Z,33.67
2022-12-03T09:49:15.934Z,38.67
2022-12-03T09:51:43.474Z,34.65
2022-12-03T09:54:10.667Z,37.45
2022-12-03T09:56:37.967Z,36.38
2022-12-03T09:59:13.428Z,39.78
2022-12-03T10:01:39.932Z,32.65
2022-12-03T10:04:06.516Z,38.00
2022-12-03T10:06:32.911Z,39.53
2022-12-03T10:09:02.211Z,38.75
2022-12-03T10:11:29.006Z,33.72
2022-12-03T10:13:56.268Z,35.65
2022-12-03T10:16:22.666Z,35.65
2022-12-03T10:18:50.513Z,40.15
2022-12-03T10:21:22.919Z,39.20
2022-12-03T10:23:55.174Z,38.83
2022-12-03T10:26:35.758Z,41.25
2022-12-03T10:29:02.067Z,35.42
2022-12-03T10:31:35.076Z,31.55
2022-12-03T10:34:01.414Z,39.03
2022-12-03T10:36:27.830Z,28.55
2022-12-03T10:39:13.282Z,31.17
2022-12-03T10:41:41.170Z,31.13
2022-12-03T10:44:18.155Z,31.13
2022-12-03T10:46:45.114Z,35.72
2022-12-03T10:49:18.501Z,34.80
2022-12-03T10:51:45.901Z,37.15
2022-12-03T10:54:20.466Z,28.33
2022-12-03T10:56:47.497Z,36.95
2022-12-03T10:59:21.721Z,37.83
2022-12-03T11:01:48.400Z,36.72
2022-12-03T11:04:19.496Z,36.17
2022-12-03T11:06:45.888Z,30.65
2022-12-03T11:09:18.203Z,37.92
2022-12-03T11:11:44.578Z,32.58
2022-12-03T11:14:11.150Z,36.17
2022-12-03T11:16:40.220Z,35.17
2022-12-03T11:19:13.045Z,35.55
2022-12-03T11:21:58.139Z,32.22
2022-12-03T11:24:24.452Z,34.95
2022-12-03T11:26:50.697Z,32.47
2022-12-03T11:29:17.027Z,33.28
2022-12-03T11:31:47.441Z,36.03
2022-12-03T11:34:16.845Z,34.00
2022-12-03T11:37:02.222Z,34.75
2022-12-03T11:39:47.395Z,35.70
2022-12-03T11:42:25.930Z,36.47
2022-12-03T11:45:04.616Z,32.65
2022-12-03T11:47:34.099Z,29.90
2022-12-03T11:50:00.590Z,27.42
2022-12-03T11:52:29.069Z,30.15
2022-12-03T11:55:14.468Z,23.90
2022-12-03T11:57:43.182Z,28.75
2022-12-03T12:00:10.372Z,33.55
2022-12-03T12:02:36.709Z,22.80
2022-12-03T12:05:21.880Z,26.95
2022-12-03T12:07:48.623Z,24.93
2022-12-03T12:10:41.234Z,24.25
2022-12-03T12:13:24.690Z,29.13
2022-12-03T12:15:51.166Z,24.42
2022-12-03T12:18:56.400Z,27.30
2022-12-03T12:21:38.380Z,25.38
2022-12-03T12:24:23.254Z,26.08
2022-12-03T12:26:50.302Z,30.02
2022-12-03T12:29:16.587Z,25.88
2022-12-03T12:31:43.248Z,28.88
2022-12-03T12:34:13.126Z,26.50
2022-12-03T12:36:39.605Z,28.17
2022-12-03T12:39:15.465Z,36.08
2022-12-03T12:41:43.069Z,29.27
2022-12-03T12:44:15.192Z,36.38
2022-12-03T12:46:48.015Z,35.58
2022-12-03T12:49:15.127Z,32.45
2022-12-03T12:51:45.394Z,43.72
2022-12-03T12:54:13.226Z,42.40
2022-12-03T12:56:42.417Z,42.83
2022-12-03T12:59:13.366Z,38.65
2022-12-03T13:01:40.135Z,43.45
2022-12-03T13:04:15.714Z,39.30
2022-12-03T13:06:43.246Z,39.33
2022-12-03T13:09:14.695Z,38.03
2022-12-03T13:11:45.536Z,42.35
2022-12-03T13:14:14.918Z,44.25
2022-12-03T13:16:41.401Z,43.72
2022-12-03T13:19:47.378Z,41.50
2022-12-03T13:22:18.629Z,47.30
2022-12-03T13:24:50.712Z,41.20
2022-12-03T13:27:17.019Z,46.97
2022-12-03T13:29:44.022Z,42.42
2022-12-03T13:32:19.196Z,53.63
2022-12-03T13:34:46.562Z,50.65
2022-12-03T13:37:19.156Z,48.30
2022-12-03T13:39:50.107Z,44.90
2022-12-03T13:42:38.551Z,46.08
2022-12-03T13:45:26.498Z,49.13
2022-12-03T13:47:57.239Z,50.65
2022-12-03T13:50:33.273Z,50.13
2022-12-03T13:53:00.424Z,42.40
2022-12-03T13:55:27.979Z,49.42
2022-12-03T13:57:54.634Z,42.72
2022-12-03T14:00:21.057Z,46.35
2022-12-03T14:02:47.413Z,41.22
2022-12-03T14:05:13.892Z,44.70
2022-12-03T14:07:40.357Z,47.30
2022-12-03T14:10:07.959Z,39.85
2022-12-03T14:12:34.344Z,40.92
2022-12-03T14:15:01.200Z,38.33
2022-12-03T14:17:27.618Z,39.80
2022-12-03T14:19:54.449Z,35.78
2022-12-03T14:22:23.501Z,38.58
2022-12-03T14:24:50.286Z,37.15
2022-12-03T14:27:16.567Z,34.90
2022-12-03T14:29:43.239Z,35.83
2022-12-03T14:32:09.517Z,33.15
2022-12-03T14:34:35.915Z,35.63
2022-12-03T14:37:02.215Z,34.03
2022-12-03T14:39:28.582Z,31.65
2022-12-03T14:42:13.239Z,33.45
2022-12-03T14:44:40.201Z,35.42
2022-12-03T14:47:06.476Z,27.30
2022-12-03T14:49:33.071Z,29.88
2022-12-03T14:51:59.367Z,29.52
2022-12-03T14:54:25.800Z,30.95
2022-12-03T14:56:52.163Z,31.85
2022-12-03T14:59:21.845Z,32.63
2022-12-03T15:01:53.025Z,27.30
2022-12-03T15:04:19.439Z,25.00
2022-12-03T15:06:46.312Z,26.27
2022-12-03T15:09:13.146Z,27.73
2022-12-03T15:11:45.784Z,31.23
2022-12-03T15:14:13.010Z,26.92
2022-12-03T15:16:39.389Z,32.70
2022-12-03T15:19:05.735Z,33.15
2022-12-03T15:21:34.764Z,31.05
2022-12-03T15:24:01.945Z,38.17
2022-12-03T15:26:28.378Z,41.03
2022-12-03T15:28:54.918Z,34.05
2022-12-03T15:31:21.266Z,39.00
2022-12-03T15:33:47.727Z,35.00
2022-12-03T15:36:14.153Z,36.10
2022-12-03T15:38:40.515Z,38.90
2022-12-03T15:41:24.557Z,38.60
2022-12-03T15:43:52.015Z,37.25
2022-12-03T15:46:18.943Z,42.20
2022-12-03T15:48:45.683Z,43.00
2022-12-03T15:51:12.322Z,40.42
2022-12-03T15:53:39.186Z,43.80
2022-12-03T15:56:05.800Z,41.47
2022-12-03T15:58:32.068Z,42.70
2022-12-03T16:00:58.367Z,46.63
2022-12-03T16:03:24.753Z,41.17
2022-12-03T16:05:51.104Z,47.72
2022-12-03T16:08:17.550Z,41.20
2022-12-03T16:10:43.889Z,50.72
2022-12-03T16:13:10.199Z,44.83
2022-12-03T16:15:36.526Z,47.63
2022-12-03T16:18:03.216Z,46.03
2022-12-03T16:20:29.683Z,49.95
2022-12-03T16:22:55.933Z,51.72
2022-12-03T16:25:22.227Z,46.97
2022-12-03T17:00:43.657Z,51.75
2022-12-03T17:03:10.109Z,55.75
2022-12-03T17:05:36.487Z,54.88
2022-12-03T17:08:02.950Z,51.40
2022-12-03T17:10:29.425Z,51.42
2022-12-03T17:13:11.336Z,50.58
2022-12-03T17:15:38.422Z,49.88
2022-12-03T17:18:04.957Z,49.85
2022-12-03T17:20:31.800Z,47.55
2022-12-03T17:22:58.689Z,45.65
2022-12-03T17:25:25.188Z,57.03
2022-12-03T17:27:51.535Z,51.70
2022-12-03T17:30:18.271Z,49.15
2022-12-03T17:32:44.588Z,44.67
2022-12-03T17:35:11.362Z,49.72
2022-12-03T17:37:37.856Z,46.65
2022-12-03T17:40:05.160Z,45.85
2022-12-03T17:42:31.431Z,53.20
2022-12-03T17:44:57.765Z,48.47
2022-12-03T17:47:24.172Z,46.80
2022-12-03T17:49:50.433Z,50.00
2022-12-03T17:52:16.757Z,51.08
2022-12-03T17:55:08.926Z,44.95
2022-12-03T17:57:29.623Z,45.38
2022-12-03T17:59:56.194Z,51.25
2022-12-03T18:02:22.765Z,46.53
2022-12-03T18:04:49.088Z,49.75
2022-12-03T18:07:15.341Z,48.33
2022-12-03T18:09:42.331Z,50.55
2022-12-03T18:12:08.612Z,47.67
2022-12-03T18:14:34.824Z,53.58
2022-12-03T18:17:01.191Z,56.10
2022-12-03T18:19:27.502Z,51.63
2022-12-03T18:21:54.298Z,51.70
2022-12-03T18:24:20.946Z,49.03
2022-12-03T18:26:47.693Z,50.55
2022-12-03T18:29:13.969Z,50.88
2022-12-03T18:31:40.442Z,48.13
2022-12-03T18:34:06.769Z,47.85
2022-12-03T18:36:34.715Z,50.85
2022-12-03T18:39:01.376Z,47.53
2022-12-03T18:41:27.877Z,45.53
2022-12-03T18:43:54.483Z,48.97
2022-12-03T18:49:10.735Z,40.65
2022-12-03T18:51:37.436Z,48.45
2022-12-03T18:54:04.135Z,43.55
2022-12-03T18:56:30.421Z,40.60
2022-12-03T18:58:56.905Z,43.47
2022-12-03T19:01:23.467Z,45.47
2022-12-03T19:03:49.816Z,42.90
2022-12-03T19:06:19.077Z,52.20
2022-12-03T19:08:45.606Z,45.55
2022-12-03T19:11:13.331Z,48.53
2022-12-03T19:13:41.453Z,46.30
2022-12-03T19:16:09.104Z,47.92
2022-12-03T19:18:36.023Z,44.33
2022-12-03T19:21:09.818Z,44.22
2022-12-03T19:23:36.754Z,42.75
2022-12-03T19:26:04.434Z,43.47
2022-12-03T19:28:31.099Z,46.20
2022-12-03T19:30:58.742Z,47.05
2022-12-03T19:33:28.582Z,46.40
2022-12-03T19:35:55.721Z,45.92
2022-12-03T19:38:26.002Z,40.28
2022-12-03T19:40:59.832Z,44.60
2022-12-03T19:43:26.270Z,43.72
2022-12-03T19:45:53.935Z,44.60
2022-12-03T19:48:22.502Z,41.75
2022-12-03T19:50:58.342Z,44.95
2022-12-03T19:53:36.469Z,38.70
2022-12-03T19:56:05.886Z,41.72
2022-12-03T19:58:32.861Z,38.63
2022-12-03T20:01:15.409Z,42.58
2022-12-03T20:03:42.606Z,38.90
2022-12-03T20:06:09.307Z,36.65
2022-12-03T20:08:38.551Z,38.60
2022-12-03T20:11:12.636Z,43.30
2022-12-03T20:13:39.279Z,43.88
2022-12-03T20:16:06.485Z,42.83
2022-12-03T20:18:33.283Z,50.50
2022-12-03T20:21:00.180Z,45.95
2022-12-03T20:23:26.535Z,40.85
2022-12-03T20:25:52.862Z,40.65
2022-12-03T20:28:19.305Z,41.15
2022-12-03T20:30:47.181Z,44.05
2022-12-03T20:33:13.684Z,47.08
2022-12-03T20:35:40.094Z,41.50
2022-12-03T20:38:06.453Z,39.53
2022-12-03T20:40:35.878Z,35.92
2022-12-03T20:43:02.380Z,39.70
2022-12-03T20:45:28.710Z,36.78
2022-12-03T20:47:55.037Z,45.03
2022-12-03T20:50:21.359Z,42.55
2022-12-03T20:53:16.318Z,40.45
2022-12-03T20:55:37.264Z,43.30
2022-12-03T20:58:03.647Z,42.50
2022-12-03T21:00:30.302Z,41.35
2022-12-03T21:02:56.982Z,37.75
2022-12-03T21:05:23.349Z,39.30
2022-12-03T21:07:52.989Z,39.20
2022-12-03T21:10:44.526Z,44.22
2022-12-03T21:13:12.462Z,37.65
2022-12-03T21:15:38.746Z,37.35
2022-12-03T21:18:05.139Z,36.42
2022-12-03T21:20:31.553Z,38.78
2022-12-03T21:22:57.843Z,38.55
2022-12-03T21:25:24.076Z,48.17
2022-12-03T21:27:50.557Z,42.33
2022-12-03T21:30:16.888Z,40.28
2022-12-03T21:32:43.563Z,42.58
2022-12-03T21:35:10.222Z,39.47
2022-12-03T21:37:36.506Z,41.78
2022-12-03T21:40:02.853Z,36.67
2022-12-03T21:42:36.794Z,38.63
2022-12-03T21:45:03.896Z,38.40
2022-12-03T21:47:36.497Z,44.25
2022-12-03T21:50:05.061Z,40.38
2022-12-03T21:52:32.048Z,38.55
2022-12-03T21:54:58.331Z,36.72
2022-12-03T21:57:24.591Z,40.55
2022-12-03T21:59:50.923Z,41.05
2022-12-03T22:02:17.286Z,41.05
2022-12-03T22:04:43.668Z,46.95
2022-12-03T22:07:09.961Z,41.72
2022-12-03T22:09:36.296Z,41.92
2022-12-03T22:12:02.653Z,34.80
2022-12-03T22:14:29.183Z,40.30
2022-12-03T22:16:55.467Z,40.45
2022-12-03T22:19:23.047Z,42.50
2022-12-03T22:21:49.575Z,41.72
2022-12-03T22:24:15.910Z,41.50
2022-12-03T22:26:42.524Z,35.78
2022-12-03T22:29:10.056Z,45.28
2022-12-03T22:31:36.396Z,42.00
2022-12-03T22:34:02.974Z,42.42
2022-12-03T22:36:29.339Z,48.45
2022-12-03T22:38:55.666Z,39.05
2022-12-03T22:41:21.960Z,45.38
2022-12-03T22:43:48.682Z,42.90
2022-12-03T22:46:15.357Z,45.47
2022-12-03T22:48:42.456Z,45.35
2022-12-03T22:51:13.497Z,44.05
2022-12-03T22:53:40.019Z,42.72
2022-12-03T22:56:06.509Z,43.00
2022-12-03T22:58:32.798Z,40.78
2022-12-03T23:01:02.953Z,42.17
2022-12-03T23:03:29.782Z,43.05
2022-12-03T23:05:56.118Z,41.08
2022-12-03T23:08:22.458Z,46.40
2022-12-03T23:10:50.277Z,43.50
2022-12-03T23:13:17.035Z,46.45
2022-12-03T23:15:45.664Z,43.38
2022-12-03T23:18:12.547Z,45.53
2022-12-03T23:20:43.690Z,42.85
2022-12-03T23:23:09.983Z,42.45
2022-12-03T23:25:37.187Z,49.60
2022-12-03T23:28:03.895Z,51.88
2022-12-03T23:30:30.330Z,40.08
2022-12-03T23:32:56.665Z,45.92
2022-12-03T23:35:23.150Z,41.92
2022-12-03T23:37:49.527Z,49.08
2022-12-03T23:40:15.880Z,44.47
2022-12-03T23:42:42.618Z,45.95
2022-12-03T23:45:09.257Z,48.70
2022-12-03T23:47:35.544Z,41.42
2022-12-03T23:50:02.221Z,48.45
2022-12-03T23:52:28.665Z,45.55
2022-12-03T23:54:55.132Z,43.30
2022-12-03T23:57:21.467Z,45.40
2022-12-03T23:59:47.713Z,46.15
